Time;durP1;ratioP1;P1;durP2;ratioP2;P2;SDS_P1;SDS_P2;PMS_P1;PMS_P2;Temp;Humidity;BMP_temperature;BMP_pressure;BME280_temperature;BME280_humidity;BME280_pressure;Samples;Min_cycle;Max_cycle;Signal;HPM_P1;HPM_P2
2023/07/27 00:00:22;;;;;;;11.20;10.70;;;;;;;;;;5048534;28;20444;-60
2023/07/27 00:02:47;;;;;;;11.43;10.93;;;;;;;;;;5050010;28;20504;-60
2023/07/27 00:05:14;;;;;;;11.32;10.82;;;;;;;;;;5047029;28;20472;-59
2023/07/27 00:07:39;;;;;;;11.20;10.70;;;;;;;;;;5044196;28;20033;-60
2023/07/27 00:10:05;;;;;;;10.93;10.43;;;;;;;;;;5049073;28;20027;-60
2023/07/27 00:12:30;;;;;;;11.70;11.20;;;;;;;;;;5047672;28;20468;-59
2023/07/27 00:14:55;;;;;;;11.25;10.75;;;;;;;;;;5046860;28;20021;-59
2023/07/27 00:17:21;;;;;;;11.40;10.90;;;;;;;;;;5045533;28;20025;-60
2023/07/27 00:19:46;;;;;;;11.40;10.90;;;;;;;;;;5047733;28;20036;-60
2023/07/27 00:22:11;;;;;;;11.10;10.60;;;;;;;;;;5047566;28;20028;-60
2023/07/27 00:24:37;;;;;;;11.43;10.93;;;;;;;;;;5043508;28;20028;-60
2023/07/27 00:27:02;;;;;;;11.38;10.88;;;;;;;;;;5047941;28;20016;-58
2023/07/27 00:29:27;;;;;;;11.20;10.70;;;;;;;;;;5046675;28;20025;-59
2023/07/27 00:31:53;;;;;;;11.63;11.13;;;;;;;;;;5044566;28;20021;-60
2023/07/27 00:34:18;;;;;;;11.48;10.98;;;;;;;;;;5046175;28;20029;-61
2023/07/27 00:36:43;;;;;;;12.10;11.50;;;;;;;;;;5045453;28;20029;-59
2023/07/27 00:39:12;;;;;;;11.73;11.18;;;;;;;;;;5048428;28;20029;-59
2023/07/27 00:41:41;;;;;;;11.10;10.60;;;;;;;;;;5046633;28;20036;-59
2023/07/27 00:44:06;;;;;;;11.30;10.80;;;;;;;;;;5046120;28;20033;-60
2023/07/27 00:46:32;;;;;;;11.13;10.63;;;;;;;;;;5043126;28;20091;-60
2023/07/27 00:48:57;;;;;;;11.55;11.05;;;;;;;;;;5046809;28;20033;-59
2023/07/27 00:51:22;;;;;;;11.40;10.90;;;;;;;;;;5049866;28;20045;-60
2023/07/27 00:53:48;;;;;;;11.25;10.75;;;;;;;;;;5046976;28;20017;-59
2023/07/27 00:56:13;;;;;;;11.85;11.27;;;;;;;;;;5045004;28;20021;-61
2023/07/27 00:58:39;;;;;;;11.77;11.18;;;;;;;;;;5046757;28;20484;-59
2023/07/27 01:01:04;;;;;;;11.32;10.82;;;;;;;;;;5047960;28;20013;-59
2023/07/27 01:03:30;;;;;;;11.55;11.05;;;;;;;;;;5044959;28;20468;-61
2023/07/27 01:05:55;;;;;;;11.48;10.98;;;;;;;;;;5045286;28;20032;-59
2023/07/27 01:08:21;;;;;;;11.38;10.88;;;;;;;;;;5046033;28;20049;-60
2023/07/27 01:10:46;;;;;;;11.40;10.90;;;;;;;;;;5043753;28;20025;-60
2023/07/27 01:13:32;;;;;;;11.65;11.15;;;;;;;;;;5046880;28;20021;-61
2023/07/27 01:15:59;;;;;;;11.60;11.10;;;;;;;;;;5017457;28;20031;-59
2023/07/27 01:18:32;;;;;;;11.93;11.32;;;;;;;;;;5049413;28;20029;-60
2023/07/27 01:21:01;;;;;;;11.52;11.02;;;;;;;;;;5047750;28;20116;-59
2023/07/27 01:23:26;;;;;;;11.60;11.10;;;;;;;;;;5044974;28;20125;-60
2023/07/27 01:26:10;;;;;;;11.48;10.98;;;;;;;;;;5031627;28;20124;-59
2023/07/27 01:29:01;;;;;;;11.35;10.85;;;;;;;;;;5046445;28;20507;-60
2023/07/27 01:31:28;;;;;;;11.38;10.88;;;;;;;;;;5048212;28;20492;-60
2023/07/27 01:33:59;;;;;;;11.75;11.25;;;;;;;;;;5051842;28;20143;-60
2023/07/27 01:36:26;;;;;;;11.20;10.70;;;;;;;;;;5049845;28;20053;-60
2023/07/27 01:38:54;;;;;;;11.43;10.93;;;;;;;;;;5051911;28;20031;-60
2023/07/27 01:41:20;;;;;;;11.57;11.07;;;;;;;;;;5047706;28;20029;-62
2023/07/27 01:43:46;;;;;;;11.30;10.80;;;;;;;;;;5051247;28;20033;-60
2023/07/27 01:46:12;;;;;;;11.30;10.80;;;;;;;;;;5049607;28;20507;-59
2023/07/27 01:48:39;;;;;;;12.45;11.85;;;;;;;;;;5050876;28;20469;-60
2023/07/27 01:51:05;;;;;;;11.50;11.00;;;;;;;;;;5047244;28;20028;-60
2023/07/27 01:53:31;;;;;;;11.27;10.77;;;;;;;;;;5046967;28;20151;-60
2023/07/27 01:55:57;;;;;;;11.48;10.98;;;;;;;;;;5050218;28;20047;-60
2023/07/27 01:58:23;;;;;;;11.60;11.10;;;;;;;;;;5048908;28;20048;-59
2023/07/27 02:00:49;;;;;;;11.63;11.13;;;;;;;;;;5050978;28;20040;-60
2023/07/27 02:03:15;;;;;;;12.05;11.45;;;;;;;;;;5048949;28;20025;-60
2023/07/27 02:05:41;;;;;;;11.63;11.13;;;;;;;;;;5051132;28;20028;-60
2023/07/27 02:08:06;;;;;;;11.93;11.32;;;;;;;;;;5047383;28;20057;-60
2023/07/27 02:10:32;;;;;;;11.60;11.10;;;;;;;;;;5049237;28;20480;-60
2023/07/27 02:13:20;;;;;;;12.05;11.45;;;;;;;;;;5050322;28;20017;-60
2023/07/27 02:15:54;;;;;;;12.20;11.60;;;;;;;;;;5050527;28;20503;-59
2023/07/27 02:18:21;;;;;;;11.90;11.30;;;;;;;;;;5049815;28;20106;-60
2023/07/27 02:20:48;;;;;;;11.27;10.77;;;;;;;;;;5050188;28;20274;-59
2023/07/27 02:23:14;;;;;;;11.60;11.10;;;;;;;;;;5046661;28;20033;-59
2023/07/27 02:25:40;;;;;;;11.63;11.13;;;;;;;;;;5047677;28;20029;-58
2023/07/27 02:28:08;;;;;;;11.90;11.30;;;;;;;;;;5048247;28;21716;-59
2023/07/27 02:30:33;;;;;;;12.02;11.43;;;;;;;;;;5049645;28;20103;-60
2023/07/27 02:32:58;;;;;;;11.90;11.30;;;;;;;;;;5046479;28;20442;-60
2023/07/27 02:35:23;;;;;;;11.68;11.15;;;;;;;;;;5047544;28;20028;-59
2023/07/27 02:37:49;;;;;;;11.50;11.00;;;;;;;;;;5050916;28;20036;-59
2023/07/27 02:40:14;;;;;;;11.50;11.00;;;;;;;;;;5049289;28;20024;-61
2023/07/27 02:42:39;;;;;;;12.27;11.68;;;;;;;;;;5045309;28;20028;-60
2023/07/27 02:45:05;;;;;;;12.20;11.60;;;;;;;;;;5046394;28;20061;-60
2023/07/27 02:47:30;;;;;;;11.82;11.27;;;;;;;;;;5049428;28;20029;-59
2023/07/27 02:49:55;;;;;;;12.20;11.60;;;;;;;;;;5047545;28;20021;-60
2023/07/27 02:52:21;;;;;;;11.43;10.93;;;;;;;;;;5047589;28;20071;-59
2023/07/27 02:54:46;;;;;;;12.18;11.57;;;;;;;;;;5049420;28;20062;-59
2023/07/27 02:57:11;;;;;;;12.05;11.45;;;;;;;;;;5045476;28;20395;-59
2023/07/27 02:59:37;;;;;;;11.90;11.30;;;;;;;;;;5048925;28;20036;-60
2023/07/27 03:02:02;;;;;;;11.95;11.35;;;;;;;;;;5050251;28;20060;-60
2023/07/27 03:04:28;;;;;;;11.35;10.85;;;;;;;;;;5047918;28;20100;-58
2023/07/27 03:06:53;;;;;;;11.90;11.30;;;;;;;;;;5043358;28;20613;-59
2023/07/27 03:09:19;;;;;;;12.40;11.80;;;;;;;;;;5048467;28;20468;-60
2023/07/27 03:11:44;;;;;;;11.63;11.13;;;;;;;;;;5048504;28;20558;-60
2023/07/27 03:14:09;;;;;;;11.98;11.38;;;;;;;;;;5049227;28;20028;-61
2023/07/27 03:16:34;;;;;;;11.52;11.02;;;;;;;;;;5047254;28;20021;-60
2023/07/27 03:19:00;;;;;;;12.07;11.48;;;;;;;;;;5045538;28;20376;-61
2023/07/27 03:21:25;;;;;;;11.60;11.10;;;;;;;;;;5047438;28;20021;-60
2023/07/27 03:23:50;;;;;;;11.35;10.85;;;;;;;;;;5048038;28;20033;-60
2023/07/27 03:26:16;;;;;;;11.85;11.25;;;;;;;;;;5047558;28;20162;-60
2023/07/27 03:28:42;;;;;;;11.82;11.23;;;;;;;;;;5051386;28;20025;-60
2023/07/27 03:31:20;;;;;;;12.00;11.40;;;;;;;;;;5047919;28;20058;-60
2023/07/27 03:33:46;;;;;;;11.45;10.95;;;;;;;;;;5043514;28;20049;-59
2023/07/27 03:36:12;;;;;;;11.88;11.27;;;;;;;;;;5048276;28;20587;-60
2023/07/27 03:38:38;;;;;;;11.80;11.23;;;;;;;;;;5047435;28;20040;-59
2023/07/27 03:41:03;;;;;;;11.50;11.00;;;;;;;;;;5045519;28;20500;-60
2023/07/27 03:43:29;;;;;;;12.48;11.88;;;;;;;;;;5046964;28;20051;-59
2023/07/27 03:45:55;;;;;;;12.40;11.80;;;;;;;;;;5049880;28;20143;-60
2023/07/27 03:48:20;;;;;;;12.15;11.55;;;;;;;;;;5029440;28;20548;-59
2023/07/27 03:50:45;;;;;;;12.15;11.55;;;;;;;;;;5046117;28;20033;-59
2023/07/27 03:53:11;;;;;;;11.52;11.02;;;;;;;;;;5041398;28;20109;-58
2023/07/27 03:55:36;;;;;;;11.40;10.90;;;;;;;;;;5047648;28;20082;-59
2023/07/27 03:58:02;;;;;;;12.45;11.85;;;;;;;;;;5049926;28;20031;-59
2023/07/27 04:00:27;;;;;;;12.73;12.13;;;;;;;;;;5048289;28;20021;-60
2023/07/27 04:02:52;;;;;;;12.18;11.57;;;;;;;;;;5046715;28;20495;-61
2023/07/27 04:05:17;;;;;;;13.15;12.45;;;;;;;;;;5044830;28;20029;-60
2023/07/27 04:07:43;;;;;;;11.57;11.07;;;;;;;;;;5045427;28;20099;-60
2023/07/27 04:10:08;;;;;;;11.73;11.20;;;;;;;;;;5046696;28;22194;-60
2023/07/27 04:12:34;;;;;;;12.23;11.63;;;;;;;;;;5045016;28;20021;-62
2023/07/27 04:14:59;;;;;;;12.43;11.82;;;;;;;;;;5051306;28;20082;-60
2023/07/27 04:17:24;;;;;;;12.10;11.50;;;;;;;;;;5030812;28;20025;-58
2023/07/27 04:19:49;;;;;;;11.80;11.20;;;;;;;;;;5048046;28;20070;-60
2023/07/27 04:22:15;;;;;;;11.40;10.90;;;;;;;;;;5046538;28;20067;-59
2023/07/27 04:24:44;;;;;;;12.00;11.40;;;;;;;;;;5047347;28;20511;-60
2023/07/27 04:27:10;;;;;;;12.00;11.40;;;;;;;;;;5046461;28;20029;-61
2023/07/27 04:29:35;;;;;;;12.35;11.75;;;;;;;;;;5044024;28;20721;-61
2023/07/27 04:32:00;;;;;;;12.65;12.05;;;;;;;;;;5045836;28;20380;-61
2023/07/27 04:34:26;;;;;;;12.25;11.65;;;;;;;;;;5045160;28;20104;-60
2023/07/27 04:36:51;;;;;;;12.40;11.80;;;;;;;;;;5047724;28;20025;-60
2023/07/27 04:39:16;;;;;;;13.27;12.57;;;;;;;;;;5043010;28;20040;-60
2023/07/27 04:41:42;;;;;;;11.93;11.32;;;;;;;;;;5046490;28;20025;-60
2023/07/27 04:44:07;;;;;;;11.93;11.35;;;;;;;;;;5045505;28;20117;-59
2023/07/27 04:46:32;;;;;;;12.30;11.70;;;;;;;;;;5043806;28;20024;-59
2023/07/27 04:48:57;;;;;;;12.00;11.40;;;;;;;;;;5043895;28;20492;-59
2023/07/27 04:51:23;;;;;;;11.35;10.85;;;;;;;;;;5048524;28;20033;-59
2023/07/27 04:53:48;;;;;;;11.70;11.18;;;;;;;;;;5043915;28;20058;-58
2023/07/27 04:56:13;;;;;;;11.80;11.20;;;;;;;;;;5045939;28;20021;-59
2023/07/27 04:58:38;;;;;;;12.55;11.95;;;;;;;;;;5046430;28;20480;-60
2023/07/27 05:01:04;;;;;;;12.43;11.82;;;;;;;;;;5049725;28;20029;-59
2023/07/27 05:03:29;;;;;;;12.07;11.48;;;;;;;;;;5030485;28;20040;-59
2023/07/27 05:05:55;;;;;;;13.77;13.07;;;;;;;;;;5046900;28;20079;-59
2023/07/27 05:08:20;;;;;;;12.75;12.15;;;;;;;;;;5042879;28;20445;-59
2023/07/27 05:10:46;;;;;;;12.30;11.70;;;;;;;;;;5046839;28;20498;-59
2023/07/27 05:13:11;;;;;;;11.45;10.95;;;;;;;;;;5048026;28;20116;-60
2023/07/27 05:15:39;;;;;;;12.35;11.75;;;;;;;;;;5045626;28;20032;-59
2023/07/27 05:18:04;;;;;;;11.85;11.25;;;;;;;;;;5047377;28;20112;-59
2023/07/27 05:20:32;;;;;;;13.45;12.75;;;;;;;;;;5045200;28;20029;-59
2023/07/27 05:22:57;;;;;;;11.68;11.15;;;;;;;;;;5042721;28;20059;-58
2023/07/27 05:25:23;;;;;;;11.88;11.27;;;;;;;;;;5043681;28;20052;-60
2023/07/27 05:27:48;;;;;;;12.48;11.88;;;;;;;;;;5047569;28;20070;-59
2023/07/27 05:30:13;;;;;;;12.45;11.85;;;;;;;;;;5044986;28;20439;-60
2023/07/27 05:32:39;;;;;;;12.43;11.82;;;;;;;;;;5046695;28;20025;-59
2023/07/27 05:35:04;;;;;;;12.65;12.05;;;;;;;;;;5048776;28;20119;-59
2023/07/27 05:37:30;;;;;;;12.85;12.25;;;;;;;;;;5044314;28;20021;-59
2023/07/27 05:39:56;;;;;;;12.80;12.20;;;;;;;;;;5045987;28;20028;-60
2023/07/27 05:42:21;;;;;;;12.10;11.50;;;;;;;;;;5045958;28;20115;-59
2023/07/27 05:44:46;;;;;;;13.25;12.55;;;;;;;;;;5044827;28;20024;-59
2023/07/27 05:47:13;;;;;;;12.10;11.50;;;;;;;;;;5041576;28;20120;-60
2023/07/27 05:49:38;;;;;;;12.23;11.63;;;;;;;;;;5046209;28;20037;-60
2023/07/27 05:52:04;;;;;;;12.70;12.10;;;;;;;;;;5046888;28;20075;-60
2023/07/27 05:54:29;;;;;;;12.63;12.02;;;;;;;;;;5044723;28;20036;-58
2023/07/27 05:56:54;;;;;;;12.73;12.13;;;;;;;;;;5045360;28;20021;-59
2023/07/27 05:59:20;;;;;;;12.55;11.95;;;;;;;;;;5043025;28;20554;-59
2023/07/27 06:01:45;;;;;;;14.10;13.35;;;;;;;;;;5044300;28;20104;-61
2023/07/27 06:04:11;;;;;;;13.48;12.77;;;;;;;;;;5037891;28;20037;-61
2023/07/27 06:06:37;;;;;;;13.32;12.63;;;;;;;;;;5044574;28;20021;-62
2023/07/27 06:09:02;;;;;;;13.75;13.05;;;;;;;;;;5046521;28;20025;-62
2023/07/27 06:11:28;;;;;;;13.25;12.55;;;;;;;;;;5043519;28;20388;-62
2023/07/27 06:13:53;;;;;;;13.55;12.85;;;;;;;;;;5043971;28;20488;-62
2023/07/27 06:16:19;;;;;;;13.77;13.07;;;;;;;;;;5040695;28;20128;-63
2023/07/27 06:18:44;;;;;;;12.45;11.85;;;;;;;;;;5027692;28;20052;-62
2023/07/27 06:21:11;;;;;;;11.52;11.02;;;;;;;;;;5050623;28;20032;-63
2023/07/27 06:23:36;;;;;;;11.80;11.23;;;;;;;;;;5050049;28;20025;-64
2023/07/27 06:26:01;;;;;;;12.20;11.60;;;;;;;;;;5024954;28;20373;-62
2023/07/27 06:28:27;;;;;;;12.27;11.68;;;;;;;;;;5047115;28;20088;-63
2023/07/27 06:30:53;;;;;;;12.02;11.43;;;;;;;;;;5050620;28;20469;-63
2023/07/27 06:33:18;;;;;;;11.52;11.02;;;;;;;;;;5051649;28;21524;-62
2023/07/27 06:35:43;;;;;;;14.27;13.52;;;;;;;;;;5043540;28;20032;-62
2023/07/27 06:38:09;;;;;;;11.88;11.32;;;;;;;;;;5048312;28;20040;-65
2023/07/27 06:40:34;;;;;;;11.35;10.85;;;;;;;;;;5048734;28;20021;-62
2023/07/27 06:42:59;;;;;;;12.13;11.52;;;;;;;;;;5049700;28;20385;-63
2023/07/27 06:45:25;;;;;;;11.48;10.98;;;;;;;;;;5049609;28;20439;-63
2023/07/27 06:47:50;;;;;;;12.00;11.40;;;;;;;;;;5048606;28;20021;-63
2023/07/27 06:50:15;;;;;;;16.25;15.35;;;;;;;;;;5042214;28;20675;-64
2023/07/27 06:52:41;;;;;;;13.02;12.43;;;;;;;;;;5038811;28;20133;-63
2023/07/27 06:55:06;;;;;;;13.57;12.88;;;;;;;;;;5046381;28;20445;-62
2023/07/27 06:57:32;;;;;;;12.88;12.27;;;;;;;;;;5046061;28;20419;-66
2023/07/27 06:59:57;;;;;;;13.77;13.07;;;;;;;;;;5026694;28;20064;-63
2023/07/27 07:02:23;;;;;;;13.65;12.95;;;;;;;;;;5043589;28;20053;-63
2023/07/27 07:04:48;;;;;;;13.38;12.68;;;;;;;;;;5045157;28;20039;-65
2023/07/27 07:07:13;;;;;;;13.95;13.25;;;;;;;;;;5040341;28;20037;-63
2023/07/27 07:09:39;;;;;;;13.85;13.15;;;;;;;;;;5044756;28;20021;-62
2023/07/27 07:12:05;;;;;;;12.95;12.27;;;;;;;;;;5044125;28;20032;-64
2023/07/27 07:14:31;;;;;;;13.60;12.90;;;;;;;;;;5042679;28;20048;-64
2023/07/27 07:16:56;;;;;;;13.27;12.57;;;;;;;;;;5040807;28;20082;-64
2023/07/27 07:19:22;;;;;;;13.75;13.05;;;;;;;;;;5041066;28;20426;-62
2023/07/27 07:21:47;;;;;;;12.23;11.63;;;;;;;;;;5040931;28;20036;-63
2023/07/27 07:24:13;;;;;;;12.65;12.05;;;;;;;;;;5044017;28;20040;-63
2023/07/27 07:26:38;;;;;;;12.95;12.35;;;;;;;;;;5042431;28;20990;-61
2023/07/27 07:29:04;;;;;;;13.05;12.45;;;;;;;;;;5043786;28;20029;-64
2023/07/27 07:31:30;;;;;;;12.90;12.30;;;;;;;;;;5023447;28;20040;-63
2023/07/27 07:33:55;;;;;;;13.15;12.55;;;;;;;;;;5040691;28;20031;-63
2023/07/27 07:36:21;;;;;;;13.85;13.15;;;;;;;;;;5045977;28;20025;-63
2023/07/27 07:38:47;;;;;;;13.60;12.90;;;;;;;;;;5041710;28;20034;-65
2023/07/27 07:41:12;;;;;;;13.32;12.65;;;;;;;;;;5041281;28;20480;-64
2023/07/27 07:43:41;;;;;;;13.07;12.48;;;;;;;;;;5043661;28;20554;-62
2023/07/27 07:46:10;;;;;;;13.13;12.48;;;;;;;;;;5035795;28;20319;-64
2023/07/27 07:48:35;;;;;;;13.77;13.07;;;;;;;;;;5039883;28;20022;-64
2023/07/27 07:51:01;;;;;;;13.73;13.02;;;;;;;;;;5041384;28;20023;-63
2023/07/27 07:53:26;;;;;;;12.87;12.27;;;;;;;;;;5037342;28;20025;-64
2023/07/27 07:55:51;;;;;;;12.95;12.35;;;;;;;;;;5042083;28;20402;-63
2023/07/27 07:58:16;;;;;;;13.00;12.40;;;;;;;;;;5026255;28;20036;-63
2023/07/27 08:00:42;;;;;;;14.05;13.35;;;;;;;;;;5042111;28;20033;-63
2023/07/27 08:03:07;;;;;;;13.95;13.25;;;;;;;;;;5039298;28;20335;-63
2023/07/27 08:05:33;;;;;;;13.70;13.00;;;;;;;;;;5041636;28;20114;-62
2023/07/27 08:07:58;;;;;;;14.18;13.48;;;;;;;;;;5027140;28;20567;-64
2023/07/27 08:10:24;;;;;;;13.57;12.88;;;;;;;;;;5044934;28;20020;-64
2023/07/27 08:12:49;;;;;;;12.95;12.35;;;;;;;;;;5046976;28;20017;-64
2023/07/27 08:15:15;;;;;;;14.13;13.43;;;;;;;;;;5046402;28;20025;-65
2023/07/27 08:17:41;;;;;;;13.00;12.40;;;;;;;;;;5045289;28;20032;-64
2023/07/27 08:20:07;;;;;;;13.13;12.52;;;;;;;;;;5042966;28;20029;-63
2023/07/27 08:22:32;;;;;;;13.57;12.88;;;;;;;;;;5045944;28;20468;-66
2023/07/27 08:24:57;;;;;;;13.23;12.63;;;;;;;;;;5044792;28;20108;-64
2023/07/27 08:27:23;;;;;;;13.32;12.73;;;;;;;;;;5046128;28;20113;-64
2023/07/27 08:29:48;;;;;;;12.60;12.00;;;;;;;;;;5041689;28;20028;-65
2023/07/27 08:32:13;;;;;;;13.13;12.52;;;;;;;;;;5042957;28;20099;-65
2023/07/27 08:34:39;;;;;;;12.88;12.27;;;;;;;;;;5023577;28;20032;-64
2023/07/27 08:37:04;;;;;;;13.68;12.98;;;;;;;;;;5040654;28;20492;-61
2023/07/27 08:39:29;;;;;;;13.63;12.93;;;;;;;;;;5040690;28;20027;-63
2023/07/27 08:41:55;;;;;;;13.55;12.85;;;;;;;;;;5042155;28;20108;-63
2023/07/27 08:44:20;;;;;;;13.20;12.60;;;;;;;;;;5041462;28;20047;-64
2023/07/27 08:46:46;;;;;;;13.10;12.50;;;;;;;;;;5043574;28;20025;-64
2023/07/27 08:49:14;;;;;;;12.73;12.13;;;;;;;;;;5040699;28;20021;-62
2023/07/27 08:51:45;;;;;;;13.13;12.52;;;;;;;;;;5041243;28;20033;-63
2023/07/27 08:54:11;;;;;;;13.00;12.40;;;;;;;;;;5044383;28;20031;-64
2023/07/27 08:56:36;;;;;;;12.93;12.32;;;;;;;;;;5043892;28;20013;-65
2023/07/27 08:59:02;;;;;;;12.95;12.35;;;;;;;;;;5044764;28;20021;-66
2023/07/27 09:01:27;;;;;;;13.75;13.05;;;;;;;;;;5039619;28;20018;-62
2023/07/27 09:03:52;;;;;;;13.30;12.70;;;;;;;;;;5040283;28;20022;-62
2023/07/27 09:06:35;;;;;;;13.80;13.10;;;;;;;;;;5037684;28;20433;-62
2023/07/27 09:09:10;;;;;;;12.77;12.18;;;;;;;;;;5040845;28;20048;-64
2023/07/27 09:11:36;;;;;;;12.50;11.90;;;;;;;;;;5039025;28;20032;-64
2023/07/27 09:14:02;;;;;;;14.23;13.52;;;;;;;;;;5040043;28;20040;-63
2023/07/27 09:16:28;;;;;;;12.55;11.95;;;;;;;;;;5041421;28;20503;-64
2023/07/27 09:18:54;;;;;;;13.63;12.93;;;;;;;;;;5034753;28;20496;-63
2023/07/27 09:21:19;;;;;;;13.48;12.82;;;;;;;;;;5037489;28;20028;-63
2023/07/27 09:23:44;;;;;;;13.23;12.63;;;;;;;;;;5035848;28;20035;-62
2023/07/27 09:26:10;;;;;;;12.95;12.35;;;;;;;;;;5037373;28;20104;-65
2023/07/27 09:28:35;;;;;;;12.68;12.07;;;;;;;;;;5031281;28;20021;-62
2023/07/27 09:31:02;;;;;;;13.15;12.55;;;;;;;;;;5040989;28;20075;-60
2023/07/27 09:33:27;;;;;;;13.10;12.50;;;;;;;;;;5042325;28;20071;-64
2023/07/27 09:35:54;;;;;;;13.13;12.52;;;;;;;;;;5042107;28;20057;-64
2023/07/27 09:38:23;;;;;;;13.02;12.43;;;;;;;;;;5043411;28;20025;-64
2023/07/27 09:40:48;;;;;;;12.85;12.25;;;;;;;;;;5046741;28;20071;-64
2023/07/27 09:43:14;;;;;;;13.00;12.40;;;;;;;;;;5044402;28;20477;-64
2023/07/27 09:45:40;;;;;;;14.00;13.30;;;;;;;;;;5041180;28;20144;-64
2023/07/27 09:48:07;;;;;;;13.27;12.68;;;;;;;;;;5045330;28;20079;-64
2023/07/27 09:50:34;;;;;;;12.80;12.20;;;;;;;;;;5043975;28;20087;-65
2023/07/27 09:53:00;;;;;;;13.20;12.60;;;;;;;;;;5042334;28;20040;-64
2023/07/27 09:55:27;;;;;;;13.15;12.55;;;;;;;;;;5048989;28;20068;-62
2023/07/27 09:57:53;;;;;;;13.23;12.63;;;;;;;;;;5044483;28;20068;-64
2023/07/27 10:00:19;;;;;;;13.00;12.40;;;;;;;;;;5046613;28;20648;-64
2023/07/27 10:02:44;;;;;;;12.45;11.85;;;;;;;;;;5047572;28;20384;-64
2023/07/27 10:05:09;;;;;;;12.70;12.10;;;;;;;;;;5048101;28;20116;-63
2023/07/27 10:07:35;;;;;;;12.98;12.35;;;;;;;;;;5046174;28;20277;-62
2023/07/27 10:10:19;;;;;;;13.70;13.00;;;;;;;;;;5049014;28;20464;-64
2023/07/27 10:12:45;;;;;;;12.85;12.25;;;;;;;;;;5049544;28;20053;-65
2023/07/27 10:15:27;;;;;;;12.82;12.23;;;;;;;;;;5045786;28;20485;-63
2023/07/27 10:17:57;;;;;;;13.10;12.50;;;;;;;;;;5045872;28;20029;-63
2023/07/27 10:20:35;;;;;;;13.00;12.40;;;;;;;;;;5041886;28;20039;-64
2023/07/27 10:23:09;;;;;;;13.18;12.57;;;;;;;;;;5047936;28;20029;-63
2023/07/27 10:25:35;;;;;;;;;;;;;;;;;;5045474;28;20025;-65
2023/07/27 10:28:00;;;;;;;13.27;12.68;;;;;;;;;;5046945;28;19913;-64
2023/07/27 10:30:25;;;;;;;13.63;12.93;;;;;;;;;;5047215;28;20025;-64
2023/07/27 10:33:06;;;;;;;12.77;12.18;;;;;;;;;;5045616;28;20031;-65
2023/07/27 10:35:51;;;;;;;13.40;12.73;;;;;;;;;;5044738;28;20376;-64
2023/07/27 10:38:19;;;;;;;13.00;12.40;;;;;;;;;;5038629;28;20034;-62
2023/07/27 10:40:45;;;;;;;12.95;12.35;;;;;;;;;;5046310;28;20037;-64
2023/07/27 10:43:10;;;;;;;12.93;12.33;;;;;;;;;;5045031;28;20024;-65
2023/07/27 10:45:35;;;;;;;12.85;12.25;;;;;;;;;;5041081;28;20285;-63
2023/07/27 10:48:00;;;;;;;12.98;12.38;;;;;;;;;;5044282;28;20167;-64
2023/07/27 10:50:26;;;;;;;13.70;13.00;;;;;;;;;;5044153;28;20061;-64
2023/07/27 10:52:52;;;;;;;12.70;12.10;;;;;;;;;;5022077;28;20021;-64
2023/07/27 10:55:19;;;;;;;13.07;12.48;;;;;;;;;;5042959;28;20013;-63
2023/07/27 10:57:46;;;;;;;12.85;12.25;;;;;;;;;;5044085;28;20508;-62
2023/07/27 11:00:11;;;;;;;12.30;11.70;;;;;;;;;;5040031;28;20584;-65
2023/07/27 11:02:38;;;;;;;13.05;12.45;;;;;;;;;;5045604;28;20024;-62
2023/07/27 11:05:05;;;;;;;12.93;12.32;;;;;;;;;;5046341;28;20589;-62
2023/07/27 11:07:33;;;;;;;12.75;12.15;;;;;;;;;;5043054;28;20705;-63
2023/07/27 11:10:01;;;;;;;12.40;11.80;;;;;;;;;;5046176;28;20021;-62
2023/07/27 11:12:27;;;;;;;12.10;11.50;;;;;;;;;;5047157;28;20029;-63
2023/07/27 11:14:52;;;;;;;12.05;11.45;;;;;;;;;;5047527;28;20037;-63
2023/07/27 11:17:18;;;;;;;13.45;12.77;;;;;;;;;;5045706;28;20052;-63
2023/07/27 11:19:43;;;;;;;13.40;12.75;;;;;;;;;;5045018;28;20072;-64
2023/07/27 11:22:09;;;;;;;12.88;12.27;;;;;;;;;;5044645;28;20024;-65
2023/07/27 11:24:35;;;;;;;13.73;13.02;;;;;;;;;;5046267;28;20036;-63
2023/07/27 11:27:00;;;;;;;12.77;12.18;;;;;;;;;;5041764;28;21338;-64
2023/07/27 11:29:26;;;;;;;12.85;12.25;;;;;;;;;;5044413;28;20082;-63
2023/07/27 11:31:53;;;;;;;12.85;12.25;;;;;;;;;;5043649;28;20057;-63
2023/07/27 11:34:20;;;;;;;12.60;12.00;;;;;;;;;;5045270;28;20044;-64
2023/07/27 11:36:50;;;;;;;11.93;11.43;;;;;;;;;;5041937;28;20048;-63
2023/07/27 11:39:15;;;;;;;12.85;12.25;;;;;;;;;;5041147;28;20017;-64
2023/07/27 11:41:41;;;;;;;12.32;11.73;;;;;;;;;;5040364;28;20071;-65
2023/07/27 11:44:07;;;;;;;13.00;12.40;;;;;;;;;;5043202;28;20071;-63
2023/07/27 11:46:40;;;;;;;13.48;12.80;;;;;;;;;;5042455;28;20025;-60
2023/07/27 11:49:07;;;;;;;13.07;12.48;;;;;;;;;;5039361;28;20082;-64
2023/07/27 11:51:33;;;;;;;12.88;12.27;;;;;;;;;;5041419;28;20024;-61
2023/07/27 11:53:58;;;;;;;12.90;12.30;;;;;;;;;;5042444;28;20021;-63
2023/07/27 11:56:23;;;;;;;13.35;12.68;;;;;;;;;;5040347;28;20021;-64
2023/07/27 11:58:49;;;;;;;12.98;12.38;;;;;;;;;;5040056;28;20083;-64
2023/07/27 12:01:15;;;;;;;13.57;12.88;;;;;;;;;;5044335;28;20025;-63
2023/07/27 12:03:41;;;;;;;12.65;12.05;;;;;;;;;;5043409;28;20396;-63
2023/07/27 12:06:07;;;;;;;12.85;12.25;;;;;;;;;;5045162;28;20028;-63
2023/07/27 12:08:34;;;;;;;13.07;12.48;;;;;;;;;;5040875;28;20389;-65
2023/07/27 12:11:00;;;;;;;12.95;12.35;;;;;;;;;;5040106;28;20029;-63
2023/07/27 12:13:26;;;;;;;12.63;12.02;;;;;;;;;;5040352;28;20029;-63
2023/07/27 12:15:58;;;;;;;13.15;12.55;;;;;;;;;;5044252;28;20021;-65
2023/07/27 12:18:25;;;;;;;12.57;11.98;;;;;;;;;;5042658;28;20115;-64
2023/07/27 12:20:50;;;;;;;12.95;12.35;;;;;;;;;;5041866;28;20024;-63
2023/07/27 12:23:16;;;;;;;12.18;11.57;;;;;;;;;;5044223;28;20036;-65
2023/07/27 12:25:41;;;;;;;12.95;12.35;;;;;;;;;;5045378;28;20025;-63
2023/07/27 12:28:08;;;;;;;12.52;11.93;;;;;;;;;;5042849;28;20066;-64
2023/07/27 12:30:33;;;;;;;13.13;12.52;;;;;;;;;;5042736;28;20053;-63
2023/07/27 12:32:58;;;;;;;12.80;12.20;;;;;;;;;;5027357;28;20043;-62
2023/07/27 12:35:24;;;;;;;12.57;11.98;;;;;;;;;;5043026;28;20130;-62
2023/07/27 12:37:49;;;;;;;13.63;12.93;;;;;;;;;;5042945;28;20387;-62
2023/07/27 12:40:14;;;;;;;12.95;12.35;;;;;;;;;;5038721;28;20424;-62
2023/07/27 12:42:40;;;;;;;12.80;12.20;;;;;;;;;;5023171;28;20037;-62
2023/07/27 12:45:06;;;;;;;13.05;12.45;;;;;;;;;;5039687;28;20025;-63
2023/07/27 12:47:32;;;;;;;13.00;12.40;;;;;;;;;;5042992;28;20108;-62
2023/07/27 12:49:57;;;;;;;12.60;12.00;;;;;;;;;;5039500;28;20140;-63
2023/07/27 12:52:22;;;;;;;12.77;12.18;;;;;;;;;;5040521;28;20806;-63
2023/07/27 12:54:47;;;;;;;12.38;11.77;;;;;;;;;;5043744;28;20021;-63
2023/07/27 12:57:14;;;;;;;14.05;13.35;;;;;;;;;;5038810;28;20052;-63
2023/07/27 12:59:40;;;;;;;12.57;11.98;;;;;;;;;;5040830;28;20048;-63
2023/07/27 13:02:06;;;;;;;12.65;12.05;;;;;;;;;;5045109;28;20033;-63
2023/07/27 13:04:31;;;;;;;12.68;12.07;;;;;;;;;;5038982;28;20500;-62
2023/07/27 13:06:56;;;;;;;13.27;12.60;;;;;;;;;;5041971;28;20523;-62
2023/07/27 13:09:22;;;;;;;12.57;11.97;;;;;;;;;;5043897;28;20025;-62
2023/07/27 13:11:47;;;;;;;12.50;11.90;;;;;;;;;;5043254;28;22747;-63
2023/07/27 13:14:12;;;;;;;13.18;12.57;;;;;;;;;;5044962;28;20474;-62
2023/07/27 13:16:38;;;;;;;12.60;12.00;;;;;;;;;;5042874;28;22139;-62
2023/07/27 13:19:04;;;;;;;12.63;12.02;;;;;;;;;;5040791;28;20048;-63
2023/07/27 13:21:30;;;;;;;12.63;12.02;;;;;;;;;;5032678;28;20060;-62
2023/07/27 13:23:55;;;;;;;12.30;11.70;;;;;;;;;;5044244;28;20060;-63
2023/07/27 13:26:20;;;;;;;12.23;11.63;;;;;;;;;;5029694;28;20020;-62
2023/07/27 13:28:46;;;;;;;12.57;11.98;;;;;;;;;;5047324;28;20040;-63
2023/07/27 13:31:12;;;;;;;12.90;12.30;;;;;;;;;;5046524;28;20075;-63
2023/07/27 13:33:37;;;;;;;12.30;11.70;;;;;;;;;;5047273;28;20029;-64
2023/07/27 13:36:02;;;;;;;12.85;12.25;;;;;;;;;;5044504;28;20477;-64
2023/07/27 13:38:28;;;;;;;11.95;11.35;;;;;;;;;;5046537;28;20036;-63
2023/07/27 13:40:53;;;;;;;12.25;11.65;;;;;;;;;;5045601;28;20119;-63
2023/07/27 13:43:19;;;;;;;12.55;11.95;;;;;;;;;;5046074;28;20025;-64
2023/07/27 13:45:45;;;;;;;13.02;12.43;;;;;;;;;;5043870;28;20265;-64
2023/07/27 13:48:10;;;;;;;12.50;11.90;;;;;;;;;;5047301;28;20393;-64
2023/07/27 13:50:35;;;;;;;12.13;11.53;;;;;;;;;;5046533;28;20078;-63
2023/07/27 13:53:03;;;;;;;12.13;11.52;;;;;;;;;;5045924;28;20289;-63
2023/07/27 13:55:29;;;;;;;12.43;11.82;;;;;;;;;;5045112;28;20034;-64
2023/07/27 13:57:54;;;;;;;12.52;11.93;;;;;;;;;;5045123;28;20614;-60
2023/07/27 14:00:20;;;;;;;13.48;12.77;;;;;;;;;;5042639;28;20497;-64
2023/07/27 14:02:46;;;;;;;12.82;12.23;;;;;;;;;;5046962;28;20060;-63
2023/07/27 14:05:13;;;;;;;13.43;12.73;;;;;;;;;;5047163;28;20060;-63
2023/07/27 14:07:38;;;;;;;12.90;12.30;;;;;;;;;;5040376;28;20126;-62
2023/07/27 14:10:04;;;;;;;12.77;12.18;;;;;;;;;;5044350;28;20060;-62
2023/07/27 14:12:29;;;;;;;12.68;12.07;;;;;;;;;;5045908;28;20017;-62